createdAt,value
2022-11-09T00:01:12.185Z,11.20
2022-11-09T00:07:54.464Z,11.30
2022-11-09T00:14:37.106Z,11.40
2022-11-09T00:21:24.413Z,11.50
2022-11-09T00:28:06.768Z,11.60
2022-11-09T00:34:49.093Z,11.50
2022-11-09T00:41:31.588Z,11.60
2022-11-09T00:48:13.919Z,11.50
2022-11-09T00:54:57.660Z,11.50
2022-11-09T01:01:40.208Z,11.60
2022-11-09T01:08:22.650Z,11.70
2022-11-09T01:15:05.640Z,11.90
2022-11-09T01:21:49.716Z,12.00
2022-11-09T01:28:38.956Z,12.10
2022-11-09T01:35:23.873Z,12.20
2022-11-09T01:42:07.511Z,12.30
2022-11-09T01:48:51.425Z,12.40
2022-11-09T01:55:35.866Z,12.40
2022-11-09T02:02:18.418Z,12.40
2022-11-09T02:09:16.377Z,12.30
2022-11-09T02:15:59.552Z,12.20
2022-11-09T02:22:42.134Z,12.20
2022-11-09T02:29:37.419Z,12.30
2022-11-09T02:36:20.421Z,12.30
2022-11-09T02:43:03.929Z,12.30
2022-11-09T02:49:47.781Z,12.40
2022-11-09T02:56:30.535Z,12.40
2022-11-09T03:03:13.193Z,12.40
2022-11-09T03:09:58.367Z,12.40
2022-11-09T03:16:46.483Z,12.50
2022-11-09T03:23:32.478Z,12.40
2022-11-09T03:30:18.886Z,12.40
2022-11-09T03:37:01.691Z,12.30
2022-11-09T03:43:44.072Z,12.10
2022-11-09T03:50:31.353Z,12.20
2022-11-09T03:57:13.650Z,12.10
2022-11-09T04:03:55.945Z,12.00
2022-11-09T04:10:38.248Z,11.80
2022-11-09T04:17:20.610Z,11.90
2022-11-09T04:24:02.973Z,11.90
2022-11-09T04:30:45.283Z,11.90
2022-11-09T04:37:27.588Z,11.90
2022-11-09T04:44:09.955Z,11.80
2022-11-09T04:50:52.249Z,11.90
2022-11-09T04:57:34.630Z,11.90
2022-11-09T05:04:17.045Z,11.80
2022-11-09T05:10:59.441Z,11.80
2022-11-09T05:17:41.750Z,11.70
2022-11-09T05:24:24.074Z,11.70
2022-11-09T05:31:07.062Z,11.60
2022-11-09T05:37:49.927Z,11.50
2022-11-09T05:44:32.223Z,11.50
2022-11-09T05:51:15.364Z,10.70
2022-11-09T05:57:57.652Z,11.50
2022-11-09T06:04:39.944Z,11.50
2022-11-09T06:11:24.294Z,11.50
2022-11-09T06:18:06.977Z,11.40
2022-11-09T06:24:49.291Z,11.40
2022-11-09T06:31:31.606Z,11.40
2022-11-09T06:38:14.134Z,11.40
2022-11-09T06:44:56.439Z,11.50
2022-11-09T06:51:38.734Z,11.60
2022-11-09T06:58:21.932Z,11.60
2022-11-09T07:05:04.841Z,11.70
2022-11-09T07:11:49.144Z,11.70
2022-11-09T07:18:31.897Z,11.80
2022-11-09T07:25:14.200Z,11.90
2022-11-09T07:31:56.664Z,11.80
2022-11-09T07:38:38.936Z,11.90
2022-11-09T07:45:21.413Z,11.90
2022-11-09T07:52:03.976Z,12.00
2022-11-09T07:58:46.279Z,12.10
2022-11-09T08:05:28.594Z,12.30
2022-11-09T08:12:10.877Z,12.40
2022-11-09T08:18:53.443Z,12.50
2022-11-09T08:25:36.666Z,12.60
2022-11-09T08:32:18.989Z,12.60
2022-11-09T08:39:01.313Z,12.60
2022-11-09T08:45:43.617Z,12.80
2022-11-09T08:52:25.943Z,12.80
2022-11-09T08:59:09.346Z,12.90
2022-11-09T09:05:51.719Z,13.00
2022-11-09T09:12:34.787Z,13.10
2022-11-09T09:19:17.180Z,13.20
2022-11-09T09:25:59.534Z,13.20
2022-11-09T09:32:43.055Z,13.20
2022-11-09T09:39:25.463Z,13.40
2022-11-09T09:46:35.222Z,13.60
2022-11-09T09:53:30.945Z,13.70
2022-11-09T10:00:24.624Z,13.90
2022-11-09T10:07:09.989Z,14.10
2022-11-09T10:14:30.943Z,14.30
2022-11-09T10:21:35.557Z,14.30
2022-11-09T10:28:18.617Z,14.40
2022-11-09T10:35:15.293Z,14.60
2022-11-09T10:41:58.039Z,14.90
2022-11-09T10:49:19.825Z,15.10
2022-11-09T10:56:22.103Z,15.50
2022-11-09T11:03:24.883Z,16.00
2022-11-09T11:10:26.009Z,16.20
2022-11-09T11:17:35.023Z,16.60
2022-11-09T11:24:45.385Z,16.70
2022-11-09T11:31:46.359Z,16.70
2022-11-09T11:39:29.513Z,16.70
2022-11-09T11:46:41.357Z,16.40
2022-11-09T11:53:47.316Z,16.30
2022-11-09T12:01:23.953Z,16.40
2022-11-09T12:08:51.414Z,16.40
2022-11-09T12:16:12.995Z,16.70
2022-11-09T12:23:29.505Z,16.70
2022-11-09T12:31:09.836Z,16.60
2022-11-09T12:38:36.766Z,16.80
2022-11-09T12:45:40.215Z,16.80
2022-11-09T12:52:43.437Z,16.80
2022-11-09T12:59:49.799Z,16.90
2022-11-09T13:07:18.192Z,17.00
2022-11-09T13:14:22.079Z,17.20
2022-11-09T13:21:23.147Z,17.20
2022-11-09T13:28:32.994Z,17.10
2022-11-09T13:35:40.067Z,17.00
2022-11-09T13:43:08.789Z,16.80
2022-11-09T13:50:20.078Z,16.80
2022-11-09T13:57:23.669Z,16.80
2022-11-09T14:04:28.304Z,16.90
2022-11-09T14:11:32.214Z,16.80
2022-11-09T14:19:03.706Z,16.50
2022-11-09T14:26:17.853Z,16.50
2022-11-09T14:33:30.621Z,16.40
2022-11-09T14:40:33.681Z,16.30
2022-11-09T14:47:39.166Z,16.20
2022-11-09T14:54:44.719Z,16.10
2022-11-09T15:02:03.201Z,15.90
2022-11-09T15:09:07.826Z,15.70
2022-11-09T15:16:21.123Z,15.60
2022-11-09T15:24:00.634Z,15.40
2022-11-09T15:31:01.593Z,15.30
2022-11-09T15:38:03.423Z,15.20
2022-11-09T15:45:05.046Z,15.00
2022-11-09T15:52:06.384Z,14.80
2022-11-09T15:59:14.583Z,14.60
2022-11-09T16:06:22.262Z,14.60
2022-11-09T16:13:23.370Z,14.50
2022-11-09T16:20:24.410Z,14.60
2022-11-09T16:27:49.134Z,14.70
2022-11-09T16:34:57.762Z,14.60
2022-11-09T16:42:11.446Z,14.60
2022-11-09T16:49:12.579Z,14.50
2022-11-09T16:56:13.973Z,14.50
2022-11-09T17:03:15.586Z,14.40
2022-11-09T17:10:16.920Z,14.40
2022-11-09T17:17:22.380Z,14.30
2022-11-09T17:24:23.933Z,14.30
2022-11-09T17:31:26.573Z,14.20
2022-11-09T17:38:29.869Z,14.30
2022-11-09T17:45:31.038Z,14.20
2022-11-09T17:52:32.167Z,14.20
2022-11-09T17:59:33.591Z,14.10
2022-11-09T18:06:34.497Z,14.00
2022-11-09T18:13:35.840Z,13.90
2022-11-09T18:20:39.059Z,14.00
2022-11-09T18:27:40.023Z,14.00
2022-11-09T18:34:40.635Z,13.80
2022-11-09T18:41:41.691Z,13.80
2022-11-09T18:48:42.816Z,13.70
2022-11-09T18:55:43.823Z,13.60
2022-11-09T19:02:44.651Z,13.60
2022-11-09T19:09:45.355Z,13.70
2022-11-09T19:16:46.047Z,13.70
2022-11-09T19:23:47.649Z,13.60
2022-11-09T19:30:48.832Z,13.60
2022-11-09T19:37:49.938Z,13.70
2022-11-09T19:44:56.032Z,13.70
2022-11-09T19:51:57.448Z,13.70
2022-11-09T19:59:00.571Z,13.70
2022-11-09T20:06:02.037Z,13.70
2022-11-09T20:13:03.452Z,13.70
2022-11-09T20:20:05.250Z,13.70
2022-11-09T20:27:06.394Z,13.60
2022-11-09T20:34:07.458Z,13.60
2022-11-09T20:41:11.205Z,13.60
2022-11-09T20:48:38.145Z,13.50
2022-11-09T20:55:35.848Z,13.40
2022-11-09T21:02:36.773Z,13.50
2022-11-09T21:09:37.628Z,13.50
2022-11-09T21:16:40.090Z,13.50
2022-11-09T21:24:00.112Z,13.30
2022-11-09T21:31:02.587Z,13.10
2022-11-09T21:38:03.234Z,13.00
2022-11-09T21:45:04.307Z,13.00
2022-11-09T21:52:05.237Z,12.90
2022-11-09T21:59:11.144Z,12.70
2022-11-09T22:06:14.436Z,12.80
2022-11-09T22:13:34.938Z,12.80
2022-11-09T22:20:54.814Z,12.80
2022-11-09T22:27:55.910Z,12.70
2022-11-09T22:34:57.026Z,12.70
2022-11-09T22:41:58.158Z,12.70
2022-11-09T22:48:59.049Z,12.70
2022-11-09T22:56:04.360Z,12.70
2022-11-09T23:03:05.224Z,12.70
2022-11-09T23:10:07.039Z,12.60
2022-11-09T23:17:27.789Z,12.70
2022-11-09T23:24:47.827Z,12.70
2022-11-09T23:31:48.707Z,12.60
2022-11-09T23:38:49.636Z,12.60
2022-11-09T23:45:50.749Z,12.40
2022-11-09T23:52:51.480Z,12.50
2022-11-09T23:59:52.236Z,12.40
